createdAt,value
2018-08-24T00:00:28.690Z,95.55
2018-08-24T00:01:28.679Z,95.50
2018-08-24T00:02:28.662Z,96.75
2018-08-24T00:03:28.646Z,97.42
2018-08-24T00:04:28.630Z,98.00
2018-08-24T00:05:28.619Z,98.68
2018-08-24T00:06:28.610Z,99.64
2018-08-24T00:07:28.733Z,99.99
2018-08-24T00:08:28.585Z,99.99
2018-08-24T00:09:28.559Z,99.99
2018-08-24T00:10:28.546Z,99.99
2018-08-24T00:11:28.530Z,99.99
2018-08-24T00:12:28.521Z,99.99
2018-08-24T00:13:28.502Z,99.99
2018-08-24T00:14:28.487Z,99.99
2018-08-24T00:15:28.467Z,99.99
2018-08-24T00:16:28.459Z,99.99
2018-08-24T00:17:28.436Z,99.99
2018-08-24T00:18:28.425Z,99.99
2018-08-24T00:19:28.405Z,99.99
2018-08-24T00:20:28.390Z,99.99
2018-08-24T00:21:28.377Z,99.99
2018-08-24T00:22:28.360Z,99.99
2018-08-24T00:23:28.350Z,99.99
2018-08-24T00:24:28.330Z,99.99
2018-08-24T00:25:28.314Z,99.99
2018-08-24T00:26:28.302Z,99.99
2018-08-24T00:27:28.282Z,99.99
2018-08-24T00:28:28.277Z,99.99
2018-08-24T00:29:28.252Z,99.99
2018-08-24T00:30:28.237Z,99.99
2018-08-24T00:31:28.230Z,99.99
2018-08-24T00:32:28.207Z,99.99
2018-08-24T00:33:28.196Z,99.99
2018-08-24T00:34:28.180Z,99.99
2018-08-24T00:35:28.162Z,99.99
2018-08-24T00:36:28.149Z,99.99
2018-08-24T00:37:28.134Z,99.99
2018-08-24T00:38:28.117Z,99.99
2018-08-24T00:39:28.111Z,99.99
2018-08-24T00:40:28.085Z,99.99
2018-08-24T00:41:28.079Z,99.99
2018-08-24T00:42:28.055Z,99.99
2018-08-24T00:43:28.038Z,99.99
2018-08-24T00:44:28.023Z,99.99
2018-08-24T00:45:28.015Z,99.99
2018-08-24T00:46:28.001Z,99.99
2018-08-24T00:47:27.978Z,99.99
2018-08-24T00:48:27.964Z,99.99
2018-08-24T00:49:27.950Z,99.99
2018-08-24T00:50:27.933Z,99.99
2018-08-24T00:51:27.917Z,99.99
2018-08-24T00:52:27.905Z,99.99
2018-08-24T00:53:27.887Z,99.99
2018-08-24T00:54:27.879Z,99.99
2018-08-24T00:55:27.857Z,99.99
2018-08-24T00:56:27.844Z,99.99
2018-08-24T00:57:27.825Z,99.99
2018-08-24T00:58:27.811Z,99.99
2018-08-24T00:59:27.795Z,99.99
2018-08-24T01:00:27.782Z,99.99
2018-08-24T01:01:27.764Z,99.99
2018-08-24T01:02:27.748Z,99.99
2018-08-24T01:03:27.735Z,99.99
2018-08-24T01:04:27.716Z,99.99
2018-08-24T01:05:27.702Z,99.99
2018-08-24T01:06:27.704Z,99.99
2018-08-24T01:07:27.730Z,99.99
2018-08-24T01:08:27.656Z,99.99
2018-08-24T01:09:27.642Z,99.99
2018-08-24T01:10:27.624Z,99.99
2018-08-24T01:11:27.606Z,99.99
2018-08-24T01:12:27.593Z,99.99
2018-08-24T01:13:27.577Z,99.99
2018-08-24T01:14:27.566Z,99.99
2018-08-24T01:15:27.546Z,99.99
2018-08-24T01:16:27.536Z,99.99
2018-08-24T01:17:27.514Z,99.99
2018-08-24T01:18:27.505Z,99.99
2018-08-24T01:19:27.482Z,99.99
2018-08-24T01:20:27.469Z,99.99
2018-08-24T01:21:27.452Z,99.99
2018-08-24T01:22:27.437Z,99.99
2018-08-24T01:23:27.423Z,99.99
2018-08-24T01:24:27.407Z,99.99
2018-08-24T01:25:27.388Z,99.99
2018-08-24T01:26:27.373Z,99.99
2018-08-24T01:27:27.354Z,99.99
2018-08-24T01:28:27.343Z,99.99
2018-08-24T01:29:27.332Z,99.99
2018-08-24T01:30:27.313Z,99.99
2018-08-24T01:31:27.295Z,99.99
2018-08-24T01:32:27.279Z,99.99
2018-08-24T01:33:27.263Z,99.99
2018-08-24T01:34:27.247Z,99.99
2018-08-24T01:35:27.231Z,99.99
2018-08-24T01:36:27.216Z,99.99
2018-08-24T01:37:27.198Z,99.99
2018-08-24T01:38:27.188Z,99.99
2018-08-24T01:39:27.165Z,99.99
2018-08-24T01:40:27.150Z,99.99
2018-08-24T01:41:27.136Z,99.99
2018-08-24T01:42:27.124Z,99.99
2018-08-24T01:43:27.103Z,99.99
2018-08-24T01:44:27.088Z,99.99
2018-08-24T01:45:27.073Z,99.99
2018-08-24T01:46:27.059Z,99.99
2018-08-24T01:47:27.041Z,99.99
2018-08-24T01:48:27.025Z,99.99
2018-08-24T01:49:27.009Z,99.99
2018-08-24T01:50:26.995Z,99.99
2018-08-24T01:51:26.985Z,99.99
2018-08-24T01:52:26.962Z,99.99
2018-08-24T01:53:26.954Z,99.99
2018-08-24T01:54:26.934Z,99.99
2018-08-24T01:55:26.918Z,99.99
2018-08-24T01:56:26.905Z,99.99
2018-08-24T01:57:26.887Z,99.99
2018-08-24T01:58:26.865Z,99.99
2018-08-24T01:59:26.850Z,99.99
2018-08-24T02:00:26.846Z,99.99
2018-08-24T02:01:26.820Z,99.99
2018-08-24T02:02:26.805Z,99.99
2018-08-24T02:03:26.785Z,99.99
2018-08-24T02:04:26.770Z,99.99
2018-08-24T02:05:26.754Z,99.99
2018-08-24T02:06:26.742Z,99.99
2018-08-24T02:07:26.723Z,99.99
2018-08-24T02:08:26.711Z,99.99
2018-08-24T02:09:26.693Z,99.99
2018-08-24T02:10:26.679Z,99.99
2018-08-24T02:11:26.660Z,99.99
2018-08-24T02:12:26.648Z,99.99
2018-08-24T02:13:26.629Z,99.99
2018-08-24T02:14:26.677Z,99.99
2018-08-24T02:15:26.595Z,99.99
2018-08-24T02:16:26.582Z,99.99
2018-08-24T02:17:26.565Z,99.99
2018-08-24T02:18:26.550Z,99.99
2018-08-24T02:19:26.536Z,99.99
2018-08-24T02:20:26.520Z,99.99
2018-08-24T02:21:26.505Z,99.99
2018-08-24T02:22:26.486Z,99.99
2018-08-24T02:23:26.471Z,99.34
2018-08-24T02:24:26.468Z,99.73
2018-08-24T02:25:26.441Z,99.99
2018-08-24T02:26:26.448Z,98.96
2018-08-24T02:27:26.406Z,97.52
2018-08-24T02:28:26.390Z,98.38
2018-08-24T02:29:26.374Z,98.38
2018-08-24T02:30:26.361Z,97.91
2018-08-24T02:31:26.341Z,97.42
2018-08-24T02:32:26.326Z,97.52
2018-08-24T02:33:26.310Z,97.61
2018-08-24T02:34:26.299Z,97.61
2018-08-24T02:35:26.278Z,97.61
2018-08-24T02:36:26.268Z,97.14
2018-08-24T02:37:26.248Z,97.14
2018-08-24T02:38:26.231Z,97.14
2018-08-24T02:39:26.215Z,97.61
2018-08-24T02:40:26.221Z,96.94
2018-08-24T02:41:26.186Z,96.94
2018-08-24T02:42:26.172Z,96.66
2018-08-24T02:43:26.152Z,97.24
2018-08-24T02:44:26.146Z,96.94
2018-08-24T02:45:26.121Z,96.85
2018-08-24T02:46:26.167Z,97.14
2018-08-24T02:47:26.090Z,97.14
2018-08-24T02:48:26.074Z,96.94
2018-08-24T02:49:26.065Z,97.14
2018-08-24T02:50:26.042Z,97.86
2018-08-24T02:51:26.026Z,97.86
2018-08-24T02:52:26.012Z,98.91
2018-08-24T02:53:25.995Z,99.01
2018-08-24T02:54:25.979Z,99.10
2018-08-24T02:55:25.962Z,99.63
2018-08-24T02:56:25.949Z,99.01
2018-08-24T02:57:25.932Z,99.15
2018-08-24T02:58:25.930Z,98.38
2018-08-24T02:59:25.900Z,98.14
2018-08-24T03:00:25.889Z,97.91
2018-08-24T03:01:25.870Z,98.05
2018-08-24T03:02:25.853Z,98.24
2018-08-24T03:03:25.870Z,98.24
2018-08-24T03:04:25.825Z,98.91
2018-08-24T03:05:25.902Z,99.39
2018-08-24T03:06:25.792Z,99.68
2018-08-24T03:07:25.774Z,99.39
2018-08-24T03:08:25.852Z,99.58
2018-08-24T03:09:25.742Z,99.96
2018-08-24T03:10:25.729Z,99.99
2018-08-24T03:11:25.711Z,99.96
2018-08-24T03:12:25.697Z,99.49
2018-08-24T03:13:25.682Z,99.87
2018-08-24T03:14:25.665Z,99.39
2018-08-24T03:15:25.654Z,99.87
2018-08-24T03:16:25.686Z,99.96
2018-08-24T03:17:25.616Z,99.99
2018-08-24T03:18:25.602Z,99.99
2018-08-24T03:19:25.607Z,99.99
2018-08-24T03:20:25.570Z,99.77
2018-08-24T03:21:25.555Z,99.87
2018-08-24T03:22:25.538Z,99.99
2018-08-24T03:23:25.524Z,99.99
2018-08-24T03:24:25.516Z,99.99
2018-08-24T03:25:25.495Z,99.99
2018-08-24T03:26:25.476Z,99.96
2018-08-24T03:27:25.460Z,99.99
2018-08-24T03:28:25.443Z,99.96
2018-08-24T03:29:25.430Z,99.99
2018-08-24T03:30:25.415Z,99.99
2018-08-24T03:31:25.397Z,99.99
2018-08-24T03:32:25.382Z,99.99
2018-08-24T03:33:25.385Z,99.99
2018-08-24T03:34:25.350Z,99.99
2018-08-24T03:35:25.340Z,99.99
2018-08-24T03:36:25.320Z,99.99
2018-08-24T03:37:25.302Z,99.99
2018-08-24T03:38:25.316Z,99.99
2018-08-24T03:39:25.275Z,99.99
2018-08-24T03:40:25.256Z,99.96
2018-08-24T03:41:25.240Z,99.58
2018-08-24T03:42:25.225Z,99.39
2018-08-24T03:43:25.212Z,99.99
2018-08-24T03:44:25.200Z,99.99
2018-08-24T03:45:25.180Z,99.99
2018-08-24T03:46:25.168Z,99.99
2018-08-24T03:47:25.146Z,99.99
2018-08-24T03:48:25.130Z,99.99
2018-08-24T03:49:25.116Z,99.99
2018-08-24T03:50:25.100Z,99.99
2018-08-24T03:51:25.082Z,99.99
2018-08-24T03:52:25.070Z,99.99
2018-08-24T03:53:25.073Z,99.99
2018-08-24T03:54:25.044Z,99.99
2018-08-24T03:55:25.021Z,99.99
2018-08-24T03:56:25.003Z,99.99
2018-08-24T03:57:24.993Z,99.99
2018-08-24T03:58:24.978Z,99.99
2018-08-24T03:59:24.962Z,99.99
2018-08-24T04:00:24.940Z,99.99
2018-08-24T04:01:24.926Z,99.99
2018-08-24T04:02:24.911Z,99.99
2018-08-24T04:03:24.890Z,99.99
2018-08-24T04:04:24.877Z,99.99
2018-08-24T04:05:24.860Z,99.99
2018-08-24T04:06:24.845Z,99.99
2018-08-24T04:07:24.828Z,99.99
2018-08-24T04:08:24.816Z,99.99
2018-08-24T04:09:24.796Z,99.99
2018-08-24T04:10:24.782Z,99.99
2018-08-24T04:11:24.769Z,99.99
2018-08-24T04:12:24.749Z,99.99
2018-08-24T04:13:24.738Z,99.99
2018-08-24T04:14:24.724Z,99.99
2018-08-24T04:15:24.701Z,99.99
2018-08-24T04:16:24.695Z,99.99
2018-08-24T04:17:24.673Z,99.99
2018-08-24T04:18:24.654Z,99.99
2018-08-24T04:19:24.674Z,99.99
2018-08-24T04:20:24.622Z,99.99
2018-08-24T04:21:24.606Z,99.99
2018-08-24T04:22:24.590Z,99.99
2018-08-24T04:23:24.574Z,99.99
2018-08-24T04:24:24.570Z,99.99
2018-08-24T04:25:24.542Z,99.99
2018-08-24T04:26:24.528Z,99.99
2018-08-24T04:27:24.509Z,99.99
2018-08-24T04:28:24.502Z,99.99
2018-08-24T04:29:24.479Z,99.99
2018-08-24T04:30:24.462Z,99.99
2018-08-24T04:31:24.448Z,99.99
2018-08-24T04:32:24.433Z,99.99
2018-08-24T04:33:24.418Z,99.99
2018-08-24T04:34:24.398Z,99.99
2018-08-24T04:35:24.386Z,99.99
2018-08-24T04:36:24.368Z,99.99
2018-08-24T04:37:24.352Z,99.99
2018-08-24T04:38:24.345Z,99.99
2018-08-24T04:39:24.320Z,99.99
2018-08-24T04:40:24.423Z,99.99
2018-08-24T04:41:24.302Z,99.99
2018-08-24T04:42:24.272Z,99.99
2018-08-24T04:43:24.257Z,99.99
2018-08-24T04:44:24.240Z,99.99
2018-08-24T04:45:24.251Z,99.99
2018-08-24T04:46:24.222Z,99.99
2018-08-24T04:47:24.192Z,99.99
2018-08-24T04:48:24.176Z,99.99
2018-08-24T04:49:24.163Z,99.99
2018-08-24T04:50:24.148Z,99.99
2018-08-24T04:51:24.197Z,99.99
2018-08-24T04:52:24.112Z,99.99
2018-08-24T04:53:24.098Z,99.99
2018-08-24T04:54:24.085Z,99.99
2018-08-24T04:55:24.069Z,99.99
2018-08-24T04:56:24.057Z,99.99
2018-08-24T04:57:24.032Z,99.99
2018-08-24T04:58:24.023Z,99.99
2018-08-24T04:59:24.002Z,99.99
2018-08-24T05:00:24.027Z,99.99
2018-08-24T05:01:23.971Z,99.99
2018-08-24T05:02:23.951Z,99.99
2018-08-24T05:03:23.942Z,99.99
2018-08-24T05:04:23.919Z,99.99
2018-08-24T05:05:23.903Z,99.99
2018-08-24T05:06:23.885Z,99.99
2018-08-24T05:07:23.868Z,99.99
2018-08-24T05:08:23.856Z,99.99
2018-08-24T05:09:23.839Z,99.99
2018-08-24T05:10:23.823Z,99.99
2018-08-24T05:11:23.806Z,99.99
2018-08-24T05:12:23.790Z,99.99
2018-08-24T05:13:23.775Z,99.99
2018-08-24T05:14:23.765Z,99.99
2018-08-24T05:15:23.741Z,99.99
2018-08-24T05:16:23.727Z,99.99
2018-08-24T05:17:23.709Z,99.99
2018-08-24T05:18:23.693Z,99.99
2018-08-24T05:19:23.684Z,99.99
2018-08-24T05:20:23.663Z,99.99
2018-08-24T05:21:23.668Z,99.99
2018-08-24T05:22:23.632Z,99.99
2018-08-24T05:23:23.617Z,99.99
2018-08-24T05:24:23.596Z,99.99
2018-08-24T05:25:23.592Z,99.99
2018-08-24T05:26:23.566Z,99.99
2018-08-24T05:27:23.545Z,99.99
2018-08-24T05:28:23.531Z,99.99
2018-08-24T05:29:23.514Z,99.99
2018-08-24T05:30:23.498Z,99.99
2018-08-24T05:31:23.485Z,99.99
2018-08-24T05:32:23.472Z,99.99
2018-08-24T05:33:23.452Z,99.99
2018-08-24T05:34:23.436Z,99.99
2018-08-24T05:35:23.416Z,99.99
2018-08-24T05:36:23.401Z,99.99
2018-08-24T05:37:23.384Z,99.99
2018-08-24T05:38:23.368Z,99.99
2018-08-24T05:39:23.358Z,99.99
2018-08-24T05:40:23.339Z,99.99
2018-08-24T05:41:23.382Z,99.99
2018-08-24T05:42:23.308Z,99.99
2018-08-24T05:43:23.285Z,99.99
2018-08-24T05:44:23.279Z,99.99
2018-08-24T05:45:23.254Z,99.99
2018-08-24T05:46:23.243Z,99.99
2018-08-24T05:47:23.225Z,99.99
2018-08-24T05:48:23.216Z,99.99
2018-08-24T05:49:23.195Z,99.99
2018-08-24T05:50:23.178Z,99.99
2018-08-24T05:51:23.163Z,99.99
2018-08-24T05:52:23.140Z,99.99
2018-08-24T05:53:23.126Z,99.99
2018-08-24T05:54:23.112Z,99.99
2018-08-24T05:55:23.093Z,99.99
2018-08-24T05:56:23.076Z,99.99
2018-08-24T05:57:23.064Z,99.99
2018-08-24T05:58:23.045Z,99.99
2018-08-24T05:59:23.030Z,99.99
2018-08-24T06:00:23.013Z,99.99
2018-08-24T06:01:23.007Z,99.99
2018-08-24T06:02:22.984Z,99.99
2018-08-24T06:03:22.964Z,99.99
2018-08-24T06:04:22.949Z,99.99
2018-08-24T06:05:22.933Z,99.99
2018-08-24T06:06:22.915Z,99.99
2018-08-24T06:07:22.902Z,99.99
2018-08-24T06:08:22.885Z,99.99
2018-08-24T06:09:22.866Z,99.99
2018-08-24T06:10:22.857Z,99.99
2018-08-24T06:11:22.836Z,99.99
2018-08-24T06:12:22.818Z,99.99
2018-08-24T06:13:22.805Z,99.99
2018-08-24T06:14:22.788Z,99.99
2018-08-24T06:15:22.769Z,99.99
2018-08-24T06:16:22.752Z,99.99
2018-08-24T06:17:22.739Z,99.99
2018-08-24T06:18:22.730Z,99.99
2018-08-24T06:19:22.703Z,99.99
2018-08-24T06:20:22.693Z,99.99
2018-08-24T06:21:22.675Z,99.99
2018-08-24T06:22:22.654Z,99.99
2018-08-24T06:23:22.638Z,99.99
2018-08-24T06:24:22.679Z,99.99
2018-08-24T06:25:22.607Z,99.99
2018-08-24T06:26:22.595Z,99.99
2018-08-24T06:27:22.571Z,99.99
2018-08-24T06:28:22.555Z,99.99
2018-08-24T06:29:22.540Z,99.99
2018-08-24T06:30:22.525Z,99.99
2018-08-24T06:31:22.508Z,99.99
2018-08-24T06:32:22.493Z,99.99
2018-08-24T06:33:22.487Z,99.99
2018-08-24T06:34:22.461Z,99.99
2018-08-24T06:35:22.442Z,99.99
2018-08-24T06:36:22.426Z,99.99
2018-08-24T06:37:22.412Z,99.99
2018-08-24T06:38:22.421Z,99.99
2018-08-24T06:39:22.378Z,99.99
2018-08-24T06:40:22.361Z,99.99
2018-08-24T06:41:22.345Z,99.99
2018-08-24T06:42:22.333Z,99.99
2018-08-24T06:43:22.313Z,99.99
2018-08-24T06:44:22.299Z,99.99
2018-08-24T06:45:22.281Z,99.99
2018-08-24T06:46:22.264Z,99.99
2018-08-24T06:47:22.428Z,99.99
2018-08-24T06:48:22.231Z,99.99
2018-08-24T06:49:22.216Z,99.99
2018-08-24T06:50:22.202Z,99.99
2018-08-24T06:51:22.181Z,99.99
2018-08-24T06:52:22.168Z,99.99
2018-08-24T06:53:22.335Z,99.99
2018-08-24T06:54:22.140Z,99.99
2018-08-24T06:55:22.115Z,99.99
2018-08-24T06:56:22.097Z,99.99
2018-08-24T06:57:22.089Z,99.99
2018-08-24T06:58:22.066Z,99.99
2018-08-24T06:59:22.053Z,99.99
2018-08-24T07:00:22.033Z,99.99
2018-08-24T07:01:22.019Z,99.99
2018-08-24T07:02:22.003Z,99.99
2018-08-24T07:03:21.987Z,99.99
2018-08-24T07:04:21.970Z,99.99
2018-08-24T07:05:21.953Z,99.99
2018-08-24T07:06:21.938Z,99.99
2018-08-24T07:07:21.925Z,99.99
2018-08-24T07:08:21.912Z,99.99
2018-08-24T07:09:21.889Z,99.99
2018-08-24T07:10:21.876Z,99.99
2018-08-24T07:11:21.858Z,99.99
2018-08-24T07:12:21.851Z,99.99
2018-08-24T07:13:21.863Z,99.99
2018-08-24T07:14:21.808Z,99.99
2018-08-24T07:15:21.800Z,99.99
2018-08-24T07:16:21.774Z,99.99
2018-08-24T07:17:21.758Z,99.99
2018-08-24T07:18:21.752Z,99.99
2018-08-24T07:19:21.726Z,99.99
2018-08-24T07:20:21.713Z,99.99
2018-08-24T07:21:21.703Z,99.99
2018-08-24T07:22:21.687Z,99.99
2018-08-24T07:23:21.671Z,99.99
2018-08-24T07:24:21.646Z,99.99
2018-08-24T07:25:21.632Z,99.99
2018-08-24T07:26:21.620Z,99.99
2018-08-24T07:27:21.600Z,99.99
2018-08-24T07:28:21.582Z,99.99
2018-08-24T07:29:21.564Z,99.99
2018-08-24T07:30:21.548Z,99.99
2018-08-24T07:31:21.542Z,99.99
2018-08-24T07:32:21.515Z,99.99
2018-08-24T07:33:21.499Z,99.99
2018-08-24T07:34:21.483Z,99.99
2018-08-24T07:35:21.464Z,99.99
2018-08-24T07:36:21.450Z,99.99
2018-08-24T07:37:21.434Z,99.99
2018-08-24T07:38:21.418Z,99.99
2018-08-24T07:39:21.527Z,99.99
2018-08-24T07:40:21.384Z,99.99
2018-08-24T07:41:21.392Z,99.99
2018-08-24T07:42:21.354Z,99.99
2018-08-24T07:43:21.339Z,99.99
2018-08-24T07:44:21.329Z,99.99
2018-08-24T07:45:21.305Z,99.99
2018-08-24T07:46:21.293Z,99.99
2018-08-24T07:47:21.278Z,99.99
2018-08-24T07:48:21.258Z,99.99
2018-08-24T07:49:21.242Z,99.99
2018-08-24T07:50:21.226Z,99.99
2018-08-24T07:51:21.227Z,99.99
2018-08-24T07:52:21.202Z,99.99
2018-08-24T07:53:21.188Z,99.99
2018-08-24T07:54:21.161Z,99.99
2018-08-24T07:55:21.149Z,99.99
2018-08-24T07:56:21.129Z,99.99
2018-08-24T07:57:21.115Z,99.99
2018-08-24T07:58:21.097Z,99.99
2018-08-24T07:59:21.078Z,99.99
2018-08-24T08:00:21.071Z,99.99
2018-08-24T08:01:21.047Z,99.99
2018-08-24T08:02:21.030Z,99.99
2018-08-24T08:03:21.016Z,99.99
2018-08-24T08:04:21.001Z,99.99
2018-08-24T08:05:21.064Z,99.99
2018-08-24T08:06:20.966Z,99.99
2018-08-24T08:07:20.949Z,99.99
2018-08-24T08:08:20.946Z,99.99
2018-08-24T08:09:20.916Z,99.99
2018-08-24T08:10:20.904Z,99.99
2018-08-24T08:11:20.891Z,99.99
2018-08-24T08:12:20.867Z,99.99
2018-08-24T08:13:20.858Z,99.99
2018-08-24T08:14:20.835Z,99.99
2018-08-24T08:15:20.818Z,99.99
2018-08-24T08:16:20.800Z,99.99
2018-08-24T08:17:20.784Z,99.99
2018-08-24T08:18:20.879Z,99.99
2018-08-24T08:19:20.751Z,99.99
2018-08-24T08:20:20.743Z,99.99
2018-08-24T08:21:20.718Z,99.99
2018-08-24T08:22:20.703Z,97.33
2018-08-24T08:23:20.687Z,96.27
2018-08-24T08:24:20.669Z,96.18
2018-08-24T08:25:20.668Z,96.27
2018-08-24T08:26:20.639Z,96.47
2018-08-24T08:27:20.619Z,96.75
2018-08-24T08:28:20.614Z,97.28
2018-08-24T08:29:20.593Z,96.99
2018-08-24T08:30:20.571Z,96.47
2018-08-24T08:31:20.557Z,96.75
2018-08-24T08:32:20.539Z,97.14
2018-08-24T08:33:20.523Z,95.79
2018-08-24T08:34:20.508Z,96.27
2018-08-24T08:35:20.493Z,96.47
2018-08-24T08:36:20.474Z,96.75
2018-08-24T08:37:20.456Z,96.56
2018-08-24T08:38:20.440Z,96.27
2018-08-24T08:39:20.424Z,96.37
2018-08-24T08:40:20.409Z,96.37
2018-08-24T08:41:20.399Z,94.83
2018-08-24T08:42:20.378Z,93.77
2018-08-24T08:43:20.358Z,93.01
2018-08-24T08:44:20.343Z,93.39
2018-08-24T08:45:20.398Z,93.59
2018-08-24T08:46:20.309Z,93.10
2018-08-24T08:47:20.294Z,93.39
2018-08-24T08:48:20.278Z,93.39
2018-08-24T08:49:20.259Z,92.14
2018-08-24T08:50:20.247Z,92.14
2018-08-24T08:51:20.227Z,93.20
2018-08-24T08:52:20.222Z,91.96
2018-08-24T08:53:20.218Z,90.90
2018-08-24T08:54:20.182Z,92.10
2018-08-24T08:55:20.163Z,89.50
2018-08-24T08:56:20.152Z,86.91
2018-08-24T08:57:20.131Z,83.36
2018-08-24T08:58:20.117Z,83.64
2018-08-24T08:59:20.099Z,83.64
2018-08-24T09:00:20.082Z,83.84
2018-08-24T09:01:20.069Z,84.74
2018-08-24T09:02:20.062Z,83.97
2018-08-24T09:03:20.049Z,83.16
2018-08-24T09:04:20.019Z,83.74
2018-08-24T09:05:20.008Z,84.70
2018-08-24T09:06:20.016Z,83.20
2018-08-24T09:07:19.975Z,81.53
2018-08-24T09:08:19.958Z,80.86
2018-08-24T09:09:19.937Z,81.34
2018-08-24T09:10:19.922Z,81.34
2018-08-24T09:11:19.903Z,79.99
2018-08-24T09:12:19.892Z,80.82
2018-08-24T09:13:19.873Z,81.68
2018-08-24T09:14:19.863Z,82.07
2018-08-24T09:15:19.840Z,81.92
2018-08-24T09:16:19.830Z,81.82
2018-08-24T09:17:19.807Z,81.92
2018-08-24T09:18:19.796Z,81.09
2018-08-24T09:19:19.778Z,79.94
2018-08-24T09:20:19.761Z,79.94
2018-08-24T09:21:19.751Z,77.86
2018-08-24T09:22:19.738Z,77.96
2018-08-24T09:23:19.712Z,78.06
2018-08-24T09:24:19.696Z,77.96
2018-08-24T09:25:19.704Z,75.40
2018-08-24T09:26:19.667Z,74.34
2018-08-24T09:27:19.648Z,74.15
2018-08-24T09:28:19.639Z,73.57
2018-08-24T09:29:19.623Z,73.77
2018-08-24T09:30:19.605Z,73.00
2018-08-24T09:31:19.588Z,73.67
2018-08-24T09:32:19.627Z,73.00
2018-08-24T09:33:19.560Z,73.57
2018-08-24T09:34:19.549Z,72.32
2018-08-24T09:35:19.531Z,72.23
2018-08-24T09:36:19.509Z,72.94
2018-08-24T09:37:19.499Z,72.65
2018-08-24T09:38:19.486Z,71.88
2018-08-24T09:39:19.464Z,72.17
2018-08-24T09:40:19.458Z,71.78
2018-08-24T09:41:19.436Z,71.30
2018-08-24T09:42:19.418Z,72.17
2018-08-24T09:43:19.409Z,73.67
2018-08-24T09:44:19.434Z,74.69
2018-08-24T09:45:19.376Z,74.79
2018-08-24T09:46:19.361Z,72.38
2018-08-24T09:47:19.344Z,73.73
2018-08-24T09:48:19.333Z,73.77
2018-08-24T09:49:19.316Z,72.23
2018-08-24T09:50:19.303Z,68.09
2018-08-24T09:51:19.282Z,66.84
2018-08-24T09:52:19.278Z,66.17
2018-08-24T09:53:19.255Z,66.17
2018-08-24T09:54:19.236Z,64.60
2018-08-24T09:55:19.220Z,66.23
2018-08-24T09:56:19.208Z,66.61
2018-08-24T09:57:19.190Z,65.84
2018-08-24T09:58:19.182Z,65.72
2018-08-24T09:59:19.172Z,65.81
2018-08-24T10:00:19.144Z,66.14
2018-08-24T10:01:19.140Z,65.94
2018-08-24T10:02:19.113Z,65.72
2018-08-24T10:03:19.096Z,65.53
2018-08-24T10:04:19.084Z,65.14
2018-08-24T10:05:19.087Z,64.37
2018-08-24T10:06:19.073Z,64.47
2018-08-24T10:07:19.034Z,64.50
2018-08-24T10:08:19.019Z,62.96
2018-08-24T10:09:19.011Z,61.36
2018-08-24T10:10:18.991Z,60.97
2018-08-24T10:11:18.971Z,61.19
2018-08-24T10:12:18.957Z,61.16
2018-08-24T10:13:18.957Z,61.00
2018-08-24T10:14:18.931Z,61.19
2018-08-24T10:15:18.910Z,61.10
2018-08-24T10:16:18.895Z,61.49
2018-08-24T10:17:18.882Z,62.29
2018-08-24T10:18:18.864Z,60.46
2018-08-24T10:19:18.850Z,60.36
2018-08-24T10:20:18.834Z,58.47
2018-08-24T10:21:18.822Z,59.91
2018-08-24T10:22:18.805Z,57.21
2018-08-24T10:23:18.788Z,56.32
2018-08-24T10:24:18.776Z,56.41
2018-08-24T10:25:18.758Z,56.90
2018-08-24T10:26:18.743Z,58.05
2018-08-24T10:27:18.726Z,58.24
2018-08-24T10:28:18.714Z,57.95
2018-08-24T10:29:18.779Z,57.86
2018-08-24T10:30:18.686Z,56.51
2018-08-24T10:31:18.667Z,56.22
2018-08-24T10:32:18.653Z,55.55
2018-08-24T10:33:18.646Z,55.29
2018-08-24T10:34:18.624Z,55.29
2018-08-24T10:35:18.607Z,54.52
2018-08-24T10:36:18.593Z,54.64
2018-08-24T10:37:18.583Z,55.99
2018-08-24T10:38:18.569Z,57.21
2018-08-24T10:39:18.554Z,56.25
2018-08-24T10:40:18.539Z,57.05
2018-08-24T10:41:18.522Z,55.41
2018-08-24T10:42:18.509Z,56.09
2018-08-24T10:43:18.490Z,57.21
2018-08-24T10:44:18.474Z,56.54
2018-08-24T10:45:18.478Z,57.40
2018-08-24T10:46:18.447Z,56.35
2018-08-24T10:47:18.456Z,56.44
2018-08-24T10:48:18.431Z,55.77
2018-08-24T10:49:18.456Z,55.09
2018-08-24T10:50:18.396Z,54.68
2018-08-24T10:51:18.383Z,55.90
2018-08-24T10:52:18.359Z,56.20
2018-08-24T10:53:18.344Z,56.87
2018-08-24T10:54:18.330Z,56.38
2018-08-24T10:55:18.322Z,56.96
2018-08-24T10:56:18.308Z,56.51
2018-08-24T10:57:18.284Z,55.35
2018-08-24T10:58:18.272Z,55.45
2018-08-24T10:59:18.278Z,53.91
2018-08-24T11:00:18.246Z,50.83
2018-08-24T11:01:18.230Z,51.12
2018-08-24T11:02:18.211Z,50.81
2018-08-24T11:03:18.204Z,49.82
2018-08-24T11:04:18.181Z,51.26
2018-08-24T11:05:18.179Z,52.32
2018-08-24T11:06:18.187Z,53.16
2018-08-24T11:07:18.252Z,53.16
2018-08-24T11:08:18.126Z,53.64
2018-08-24T11:09:18.109Z,54.31
2018-08-24T11:10:18.091Z,55.37
2018-08-24T11:11:18.080Z,54.60
2018-08-24T11:12:18.060Z,54.50
2018-08-24T11:13:18.050Z,54.50
2018-08-24T11:14:18.030Z,54.34
2018-08-24T11:15:18.019Z,53.74
2018-08-24T11:16:17.998Z,54.12
2018-08-24T11:17:17.989Z,54.82
2018-08-24T11:18:17.968Z,55.27
2018-08-24T11:19:17.956Z,55.76
2018-08-24T11:20:17.936Z,55.78
2018-08-24T11:21:17.921Z,55.40
2018-08-24T11:22:17.906Z,55.33
2018-08-24T11:23:17.902Z,53.11
2018-08-24T11:24:17.875Z,50.45
2018-08-24T11:25:17.858Z,49.19
2018-08-24T11:26:17.904Z,49.68
2018-08-24T11:27:17.837Z,49.00
2018-08-24T11:28:17.817Z,48.43
2018-08-24T11:29:17.864Z,48.44
2018-08-24T11:30:17.787Z,48.25
2018-08-24T11:31:17.767Z,48.35
2018-08-24T11:32:17.751Z,48.43
2018-08-24T11:33:17.752Z,49.77
2018-08-24T11:34:17.723Z,48.64
2018-08-24T11:35:17.709Z,48.44
2018-08-24T11:36:17.783Z,47.58
2018-08-24T11:37:17.679Z,47.87
2018-08-24T11:38:17.668Z,47.97
2018-08-24T11:39:17.652Z,47.65
2018-08-24T11:40:17.635Z,48.43
2018-08-24T11:41:17.617Z,48.90
2018-08-24T11:42:17.716Z,49.10
2018-08-24T11:43:17.602Z,49.22
2018-08-24T11:44:17.571Z,47.97
2018-08-24T11:45:17.565Z,47.94
2018-08-24T11:46:17.555Z,47.75
2018-08-24T11:47:17.530Z,48.69
2018-08-24T11:48:17.517Z,49.65
2018-08-24T11:49:17.498Z,49.36
2018-08-24T11:50:17.490Z,50.90
2018-08-24T11:51:17.479Z,50.71
2018-08-24T11:52:17.455Z,50.90
2018-08-24T11:53:17.443Z,50.51
2018-08-24T11:54:17.436Z,50.04
2018-08-24T11:55:17.407Z,50.32
2018-08-24T11:56:17.395Z,49.96
2018-08-24T11:57:17.377Z,50.83
2018-08-24T11:58:17.365Z,49.29
2018-08-24T11:59:17.354Z,49.29
2018-08-24T12:00:17.336Z,49.10
2018-08-24T12:01:17.317Z,49.29
2018-08-24T12:02:17.301Z,49.38
2018-08-24T12:03:17.293Z,48.40
2018-08-24T12:04:17.285Z,48.97
2018-08-24T12:05:17.256Z,49.55
2018-08-24T12:06:17.240Z,48.97
2018-08-24T12:07:17.224Z,48.97
2018-08-24T12:08:17.283Z,48.88
2018-08-24T12:09:17.195Z,48.59
2018-08-24T12:10:17.181Z,48.33
2018-08-24T12:11:17.175Z,47.46
2018-08-24T12:12:17.194Z,47.29
2018-08-24T12:13:17.137Z,46.62
2018-08-24T12:14:17.232Z,46.64
2018-08-24T12:15:17.113Z,45.58
2018-08-24T12:16:17.088Z,45.10
2018-08-24T12:17:17.075Z,45.65
2018-08-24T12:18:17.087Z,46.21
2018-08-24T12:19:17.049Z,46.98
2018-08-24T12:20:17.028Z,47.65
2018-08-24T12:21:17.167Z,47.65
2018-08-24T12:22:17.001Z,47.97
2018-08-24T12:23:16.997Z,46.62
2018-08-24T12:24:17.013Z,45.97
2018-08-24T12:25:16.955Z,45.20
2018-08-24T12:26:16.943Z,45.41
2018-08-24T12:27:16.938Z,45.12
2018-08-24T12:28:16.912Z,44.93
2018-08-24T12:29:16.893Z,44.64
2018-08-24T12:30:16.879Z,45.34
2018-08-24T12:31:16.864Z,45.24
2018-08-24T12:32:16.853Z,45.24
2018-08-24T12:33:16.838Z,44.66
2018-08-24T12:34:16.822Z,45.43
2018-08-24T12:35:16.816Z,45.04
2018-08-24T12:36:16.790Z,44.37
2018-08-24T12:37:16.777Z,44.35
2018-08-24T12:38:16.765Z,45.20
2018-08-24T12:39:16.751Z,46.28
2018-08-24T12:40:16.734Z,46.18
2018-08-24T12:41:16.807Z,46.66
2018-08-24T12:42:16.707Z,46.56
2018-08-24T12:43:16.689Z,46.78
2018-08-24T12:44:16.677Z,46.69
2018-08-24T12:45:16.661Z,46.47
2018-08-24T12:46:16.650Z,46.08
2018-08-24T12:47:16.633Z,45.79
2018-08-24T12:48:16.630Z,46.93
2018-08-24T12:49:16.637Z,46.42
2018-08-24T12:50:16.592Z,46.71
2018-08-24T12:51:16.574Z,46.42
2018-08-24T12:52:16.561Z,45.65